sensor_id;sensor_type;location;lat;lon;timestamp;P1;durP1;ratioP1;P2;durP2;ratioP2
20441;SDS011;10380;52.102;20.614;2022-09-21T00:01:18;8.83;;;5.60;;
20441;SDS011;10380;52.102;20.614;2022-09-21T00:03:50;8.67;;;6.30;;
20441;SDS011;10380;52.102;20.614;2022-09-21T00:06:19;8.47;;;6.00;;
20441;SDS011;10380;52.102;20.614;2022-09-21T00:08:48;8.97;;;6.33;;
20441;SDS011;10380;52.102;20.614;2022-09-21T00:11:17;9.23;;;5.80;;
20441;SDS011;10380;52.102;20.614;2022-09-21T00:13:45;9.83;;;5.57;;
20441;SDS011;10380;52.102;20.614;2022-09-21T00:16:13;8.90;;;5.90;;
20441;SDS011;10380;52.102;20.614;2022-09-21T00:18:42;9.90;;;5.97;;
20441;SDS011;10380;52.102;20.614;2022-09-21T00:21:10;8.70;;;6.03;;
20441;SDS011;10380;52.102;20.614;2022-09-21T00:23:39;8.87;;;5.23;;
20441;SDS011;10380;52.102;20.614;2022-09-21T00:26:07;7.10;;;5.90;;
20441;SDS011;10380;52.102;20.614;2022-09-21T00:28:37;7.33;;;5.50;;
20441;SDS011;10380;52.102;20.614;2022-09-21T00:31:07;8.57;;;5.70;;
20441;SDS011;10380;52.102;20.614;2022-09-21T00:33:38;10.40;;;6.50;;
20441;SDS011;10380;52.102;20.614;2022-09-21T00:36:07;9.43;;;6.27;;
20441;SDS011;10380;52.102;20.614;2022-09-21T00:38:36;9.80;;;5.87;;
20441;SDS011;10380;52.102;20.614;2022-09-21T00:41:04;9.80;;;6.30;;
20441;SDS011;10380;52.102;20.614;2022-09-21T00:43:33;8.73;;;6.13;;
20441;SDS011;10380;52.102;20.614;2022-09-21T00:46:33;7.30;;;6.00;;
20441;SDS011;10380;52.102;20.614;2022-09-21T00:49:03;9.50;;;6.13;;
20441;SDS011;10380;52.102;20.614;2022-09-21T00:51:30;9.27;;;6.33;;
20441;SDS011;10380;52.102;20.614;2022-09-21T00:53:59;8.40;;;6.00;;
20441;SDS011;10380;52.102;20.614;2022-09-21T00:56:29;8.27;;;5.47;;
20441;SDS011;10380;52.102;20.614;2022-09-21T00:58:56;8.33;;;5.90;;
20441;SDS011;10380;52.102;20.614;2022-09-21T01:01:26;10.97;;;6.47;;
20441;SDS011;10380;52.102;20.614;2022-09-21T01:03:53;9.37;;;6.10;;
20441;SDS011;10380;52.102;20.614;2022-09-21T01:06:22;7.33;;;6.13;;
20441;SDS011;10380;52.102;20.614;2022-09-21T01:08:51;7.97;;;6.57;;
20441;SDS011;10380;52.102;20.614;2022-09-21T01:25:08;9.67;;;5.87;;
20441;SDS011;10380;52.102;20.614;2022-09-21T01:30:47;9.57;;;6.67;;
20441;SDS011;10380;52.102;20.614;2022-09-21T01:33:21;8.60;;;6.20;;
20441;SDS011;10380;52.102;20.614;2022-09-21T01:35:56;11.23;;;6.87;;
20441;SDS011;10380;52.102;20.614;2022-09-21T01:38:37;9.37;;;5.83;;
20441;SDS011;10380;52.102;20.614;2022-09-21T01:41:11;8.47;;;5.23;;
20441;SDS011;10380;52.102;20.614;2022-09-21T01:43:42;9.70;;;6.20;;
20441;SDS011;10380;52.102;20.614;2022-09-21T01:46:15;10.37;;;6.67;;
20441;SDS011;10380;52.102;20.614;2022-09-21T01:48:46;9.07;;;6.37;;
20441;SDS011;10380;52.102;20.614;2022-09-21T01:51:17;9.13;;;6.17;;
20441;SDS011;10380;52.102;20.614;2022-09-21T01:53:57;10.77;;;5.90;;
20441;SDS011;10380;52.102;20.614;2022-09-21T01:56:35;11.03;;;6.53;;
20441;SDS011;10380;52.102;20.614;2022-09-21T02:01:40;9.57;;;6.17;;
20441;SDS011;10380;52.102;20.614;2022-09-21T02:04:12;9.23;;;6.73;;
20441;SDS011;10380;52.102;20.614;2022-09-21T02:06:40;8.93;;;6.27;;
20441;SDS011;10380;52.102;20.614;2022-09-21T02:09:11;9.00;;;7.67;;
20441;SDS011;10380;52.102;20.614;2022-09-21T02:11:38;11.20;;;7.57;;
20441;SDS011;10380;52.102;20.614;2022-09-21T02:14:15;9.77;;;6.77;;
20441;SDS011;10380;52.102;20.614;2022-09-21T02:16:46;11.07;;;7.80;;
20441;SDS011;10380;52.102;20.614;2022-09-21T02:22:20;10.07;;;7.10;;
20441;SDS011;10380;52.102;20.614;2022-09-21T02:25:06;13.10;;;7.27;;
20441;SDS011;10380;52.102;20.614;2022-09-21T02:30:18;10.20;;;6.87;;
20441;SDS011;10380;52.102;20.614;2022-09-21T02:32:58;11.63;;;7.57;;
20441;SDS011;10380;52.102;20.614;2022-09-21T02:35:36;9.93;;;7.53;;
20441;SDS011;10380;52.102;20.614;2022-09-21T02:46:18;12.20;;;7.73;;
20441;SDS011;10380;52.102;20.614;2022-09-21T02:48:57;10.97;;;7.70;;
20441;SDS011;10380;52.102;20.614;2022-09-21T02:51:38;9.53;;;8.07;;
20441;SDS011;10380;52.102;20.614;2022-09-21T02:54:10;10.87;;;8.40;;
20441;SDS011;10380;52.102;20.614;2022-09-21T02:56:41;10.37;;;8.00;;
20441;SDS011;10380;52.102;20.614;2022-09-21T02:59:12;9.53;;;8.23;;
20441;SDS011;10380;52.102;20.614;2022-09-21T03:01:40;11.43;;;8.33;;
20441;SDS011;10380;52.102;20.614;2022-09-21T03:04:08;11.70;;;8.20;;
20441;SDS011;10380;52.102;20.614;2022-09-21T03:06:36;10.87;;;7.63;;
20441;SDS011;10380;52.102;20.614;2022-09-21T03:09:02;11.87;;;9.10;;
20441;SDS011;10380;52.102;20.614;2022-09-21T03:11:29;13.33;;;8.67;;
20441;SDS011;10380;52.102;20.614;2022-09-21T03:13:56;9.70;;;7.50;;
20441;SDS011;10380;52.102;20.614;2022-09-21T03:16:24;12.40;;;8.93;;
20441;SDS011;10380;52.102;20.614;2022-09-21T03:18:50;12.13;;;8.50;;
20441;SDS011;10380;52.102;20.614;2022-09-21T03:21:18;11.13;;;8.50;;
20441;SDS011;10380;52.102;20.614;2022-09-21T03:23:44;13.67;;;9.07;;
20441;SDS011;10380;52.102;20.614;2022-09-21T03:26:12;13.10;;;8.63;;
20441;SDS011;10380;52.102;20.614;2022-09-21T03:28:39;11.70;;;9.23;;
20441;SDS011;10380;52.102;20.614;2022-09-21T03:31:07;13.03;;;8.63;;
20441;SDS011;10380;52.102;20.614;2022-09-21T03:33:33;14.80;;;8.97;;
20441;SDS011;10380;52.102;20.614;2022-09-21T03:36:01;16.30;;;11.33;;
20441;SDS011;10380;52.102;20.614;2022-09-21T03:38:28;13.00;;;8.73;;
20441;SDS011;10380;52.102;20.614;2022-09-21T03:40:55;12.93;;;8.63;;
20441;SDS011;10380;52.102;20.614;2022-09-21T03:43:23;12.13;;;8.60;;
20441;SDS011;10380;52.102;20.614;2022-09-21T03:45:53;12.23;;;8.77;;
20441;SDS011;10380;52.102;20.614;2022-09-21T03:48:20;11.33;;;8.83;;
20441;SDS011;10380;52.102;20.614;2022-09-21T03:50:47;13.00;;;9.50;;
20441;SDS011;10380;52.102;20.614;2022-09-21T03:53:14;14.13;;;9.43;;
20441;SDS011;10380;52.102;20.614;2022-09-21T03:55:41;12.73;;;9.60;;
20441;SDS011;10380;52.102;20.614;2022-09-21T03:58:09;12.20;;;8.43;;
20441;SDS011;10380;52.102;20.614;2022-09-21T04:00:36;14.30;;;9.47;;
20441;SDS011;10380;52.102;20.614;2022-09-21T04:03:04;12.13;;;9.47;;
20441;SDS011;10380;52.102;20.614;2022-09-21T04:05:31;12.07;;;9.00;;
20441;SDS011;10380;52.102;20.614;2022-09-21T04:07:58;10.63;;;8.97;;
20441;SDS011;10380;52.102;20.614;2022-09-21T04:10:27;13.67;;;9.83;;
20441;SDS011;10380;52.102;20.614;2022-09-21T04:12:59;13.33;;;10.33;;
20441;SDS011;10380;52.102;20.614;2022-09-21T04:15:27;11.60;;;9.60;;
20441;SDS011;10380;52.102;20.614;2022-09-21T04:17:55;9.67;;;8.50;;
20441;SDS011;10380;52.102;20.614;2022-09-21T04:20:22;10.63;;;9.20;;
20441;SDS011;10380;52.102;20.614;2022-09-21T04:22:49;14.37;;;9.70;;
20441;SDS011;10380;52.102;20.614;2022-09-21T04:25:18;12.23;;;9.43;;
20441;SDS011;10380;52.102;20.614;2022-09-21T04:27:45;13.20;;;10.10;;
20441;SDS011;10380;52.102;20.614;2022-09-21T04:30:13;13.63;;;9.33;;
20441;SDS011;10380;52.102;20.614;2022-09-21T04:32:41;11.43;;;9.20;;
20441;SDS011;10380;52.102;20.614;2022-09-21T04:35:09;10.97;;;9.63;;
20441;SDS011;10380;52.102;20.614;2022-09-21T04:37:36;11.10;;;8.40;;
20441;SDS011;10380;52.102;20.614;2022-09-21T04:40:03;9.67;;;8.67;;
20441;SDS011;10380;52.102;20.614;2022-09-21T04:42:31;13.23;;;8.03;;
20441;SDS011;10380;52.102;20.614;2022-09-21T04:44:58;11.77;;;8.93;;
20441;SDS011;10380;52.102;20.614;2022-09-21T04:47:27;11.53;;;8.47;;
20441;SDS011;10380;52.102;20.614;2022-09-21T04:49:55;9.73;;;8.17;;
20441;SDS011;10380;52.102;20.614;2022-09-21T04:52:22;14.37;;;9.17;;
20441;SDS011;10380;52.102;20.614;2022-09-21T04:54:49;11.00;;;8.43;;
20441;SDS011;10380;52.102;20.614;2022-09-21T04:57:16;12.20;;;7.93;;
20441;SDS011;10380;52.102;20.614;2022-09-21T04:59:43;10.87;;;8.20;;
20441;SDS011;10380;52.102;20.614;2022-09-21T05:02:10;11.13;;;7.90;;
20441;SDS011;10380;52.102;20.614;2022-09-21T05:04:37;13.70;;;8.43;;
20441;SDS011;10380;52.102;20.614;2022-09-21T05:07:05;12.23;;;7.63;;
20441;SDS011;10380;52.102;20.614;2022-09-21T05:09:32;9.57;;;6.97;;
20441;SDS011;10380;52.102;20.614;2022-09-21T05:12:17;10.73;;;8.33;;
20441;SDS011;10380;52.102;20.614;2022-09-21T05:14:45;10.20;;;7.67;;
20441;SDS011;10380;52.102;20.614;2022-09-21T05:17:12;11.30;;;7.53;;
20441;SDS011;10380;52.102;20.614;2022-09-21T05:19:39;9.13;;;7.27;;
20441;SDS011;10380;52.102;20.614;2022-09-21T05:22:06;8.77;;;7.87;;
20441;SDS011;10380;52.102;20.614;2022-09-21T05:24:33;9.10;;;7.97;;
20441;SDS011;10380;52.102;20.614;2022-09-21T05:27:00;11.83;;;7.90;;
20441;SDS011;10380;52.102;20.614;2022-09-21T05:29:27;9.80;;;7.63;;
20441;SDS011;10380;52.102;20.614;2022-09-21T05:32:05;7.93;;;7.00;;
20441;SDS011;10380;52.102;20.614;2022-09-21T05:35:03;7.00;;;6.30;;
20441;SDS011;10380;52.102;20.614;2022-09-21T05:37:47;10.70;;;7.10;;
20441;SDS011;10380;52.102;20.614;2022-09-21T05:40:28;9.80;;;7.03;;
20441;SDS011;10380;52.102;20.614;2022-09-21T05:42:55;7.70;;;6.93;;
20441;SDS011;10380;52.102;20.614;2022-09-21T05:45:23;8.90;;;7.00;;
20441;SDS011;10380;52.102;20.614;2022-09-21T05:53:32;8.50;;;6.90;;
20441;SDS011;10380;52.102;20.614;2022-09-21T06:02:12;13.40;;;6.40;;
20441;SDS011;10380;52.102;20.614;2022-09-21T06:05:00;18.97;;;13.83;;
20441;SDS011;10380;52.102;20.614;2022-09-21T06:07:31;12.63;;;8.10;;
20441;SDS011;10380;52.102;20.614;2022-09-21T06:09:58;8.17;;;6.53;;
20441;SDS011;10380;52.102;20.614;2022-09-21T06:12:25;7.73;;;6.27;;
20441;SDS011;10380;52.102;20.614;2022-09-21T06:14:53;9.13;;;6.97;;
20441;SDS011;10380;52.102;20.614;2022-09-21T06:17:21;10.97;;;6.90;;
20441;SDS011;10380;52.102;20.614;2022-09-21T06:19:48;9.07;;;7.90;;
20441;SDS011;10380;52.102;20.614;2022-09-21T06:22:15;8.07;;;7.10;;
20441;SDS011;10380;52.102;20.614;2022-09-21T06:24:42;9.00;;;6.77;;
20441;SDS011;10380;52.102;20.614;2022-09-21T06:27:09;5.83;;;4.30;;
20441;SDS011;10380;52.102;20.614;2022-09-21T06:29:36;7.47;;;6.77;;
20441;SDS011;10380;52.102;20.614;2022-09-21T06:32:03;6.70;;;5.07;;
20441;SDS011;10380;52.102;20.614;2022-09-21T06:34:30;7.87;;;5.03;;
20441;SDS011;10380;52.102;20.614;2022-09-21T06:36:58;7.80;;;6.70;;
20441;SDS011;10380;52.102;20.614;2022-09-21T06:39:24;10.07;;;7.03;;
20441;SDS011;10380;52.102;20.614;2022-09-21T06:41:51;9.30;;;6.47;;
20441;SDS011;10380;52.102;20.614;2022-09-21T06:44:18;5.17;;;3.83;;
20441;SDS011;10380;52.102;20.614;2022-09-21T06:46:45;5.80;;;5.20;;
20441;SDS011;10380;52.102;20.614;2022-09-21T06:49:12;8.13;;;5.37;;
20441;SDS011;10380;52.102;20.614;2022-09-21T06:51:39;6.90;;;5.57;;
20441;SDS011;10380;52.102;20.614;2022-09-21T06:54:06;5.00;;;4.53;;
20441;SDS011;10380;52.102;20.614;2022-09-21T06:56:33;7.67;;;6.10;;
20441;SDS011;10380;52.102;20.614;2022-09-21T06:59:01;9.87;;;6.27;;
20441;SDS011;10380;52.102;20.614;2022-09-21T07:01:28;7.80;;;6.77;;
20441;SDS011;10380;52.102;20.614;2022-09-21T07:03:55;7.53;;;5.90;;
20441;SDS011;10380;52.102;20.614;2022-09-21T07:06:22;7.90;;;5.30;;
20441;SDS011;10380;52.102;20.614;2022-09-21T07:08:50;6.80;;;6.10;;
20441;SDS011;10380;52.102;20.614;2022-09-21T07:11:38;7.87;;;5.33;;
20441;SDS011;10380;52.102;20.614;2022-09-21T07:14:06;8.07;;;5.97;;
20441;SDS011;10380;52.102;20.614;2022-09-21T07:16:33;8.80;;;7.37;;
20441;SDS011;10380;52.102;20.614;2022-09-21T07:19:01;6.53;;;4.90;;
20441;SDS011;10380;52.102;20.614;2022-09-21T07:21:37;8.50;;;6.77;;
20441;SDS011;10380;52.102;20.614;2022-09-21T07:24:05;7.83;;;6.17;;
20441;SDS011;10380;52.102;20.614;2022-09-21T07:26:37;9.23;;;6.13;;
20441;SDS011;10380;52.102;20.614;2022-09-21T07:29:04;5.90;;;4.53;;
20441;SDS011;10380;52.102;20.614;2022-09-21T07:31:32;4.47;;;4.07;;
20441;SDS011;10380;52.102;20.614;2022-09-21T07:33:59;6.37;;;4.97;;
20441;SDS011;10380;52.102;20.614;2022-09-21T07:36:26;6.67;;;4.57;;
20441;SDS011;10380;52.102;20.614;2022-09-21T07:38:52;7.90;;;5.10;;
20441;SDS011;10380;52.102;20.614;2022-09-21T07:41:19;7.60;;;5.07;;
20441;SDS011;10380;52.102;20.614;2022-09-21T07:43:46;7.23;;;5.57;;
20441;SDS011;10380;52.102;20.614;2022-09-21T07:46:13;10.37;;;4.70;;
20441;SDS011;10380;52.102;20.614;2022-09-21T07:48:41;5.87;;;4.67;;
20441;SDS011;10380;52.102;20.614;2022-09-21T07:51:11;6.10;;;4.47;;
20441;SDS011;10380;52.102;20.614;2022-09-21T07:53:41;6.47;;;4.20;;
20441;SDS011;10380;52.102;20.614;2022-09-21T07:56:14;5.80;;;4.60;;
20441;SDS011;10380;52.102;20.614;2022-09-21T07:58:42;7.93;;;4.60;;
20441;SDS011;10380;52.102;20.614;2022-09-21T08:01:28;5.80;;;4.50;;
20441;SDS011;10380;52.102;20.614;2022-09-21T08:03:58;6.87;;;3.70;;
20441;SDS011;10380;52.102;20.614;2022-09-21T08:06:26;4.60;;;3.77;;
20441;SDS011;10380;52.102;20.614;2022-09-21T08:08:55;3.93;;;3.53;;
20441;SDS011;10380;52.102;20.614;2022-09-21T08:11:24;5.80;;;3.80;;
20441;SDS011;10380;52.102;20.614;2022-09-21T08:13:56;6.57;;;3.47;;
20441;SDS011;10380;52.102;20.614;2022-09-21T08:16:25;3.10;;;2.27;;
20441;SDS011;10380;52.102;20.614;2022-09-21T08:18:52;4.60;;;3.10;;
20441;SDS011;10380;52.102;20.614;2022-09-21T08:21:20;5.30;;;3.00;;
20441;SDS011;10380;52.102;20.614;2022-09-21T08:23:47;4.80;;;3.03;;
20441;SDS011;10380;52.102;20.614;2022-09-21T08:26:16;3.37;;;2.93;;
20441;SDS011;10380;52.102;20.614;2022-09-21T08:28:48;5.13;;;3.97;;
20441;SDS011;10380;52.102;20.614;2022-09-21T08:31:17;4.77;;;3.73;;
20441;SDS011;10380;52.102;20.614;2022-09-21T08:33:46;4.53;;;3.77;;
20441;SDS011;10380;52.102;20.614;2022-09-21T08:36:15;3.20;;;3.00;;
20441;SDS011;10380;52.102;20.614;2022-09-21T08:38:43;3.53;;;3.20;;
20441;SDS011;10380;52.102;20.614;2022-09-21T08:41:14;3.83;;;3.43;;
20441;SDS011;10380;52.102;20.614;2022-09-21T08:43:43;4.03;;;3.63;;
20441;SDS011;10380;52.102;20.614;2022-09-21T08:46:17;4.33;;;3.93;;
20441;SDS011;10380;52.102;20.614;2022-09-21T08:49:05;5.83;;;3.97;;
20441;SDS011;10380;52.102;20.614;2022-09-21T08:52:07;4.67;;;3.87;;
20441;SDS011;10380;52.102;20.614;2022-09-21T08:57:27;4.80;;;3.83;;
20441;SDS011;10380;52.102;20.614;2022-09-21T08:59:55;5.50;;;3.43;;
20441;SDS011;10380;52.102;20.614;2022-09-21T09:22:30;6.20;;;3.40;;
20441;SDS011;10380;52.102;20.614;2022-09-21T09:25:16;3.63;;;2.80;;
20441;SDS011;10380;52.102;20.614;2022-09-21T09:27:49;3.20;;;2.80;;
20441;SDS011;10380;52.102;20.614;2022-09-21T09:30:22;4.60;;;3.13;;
20441;SDS011;10380;52.102;20.614;2022-09-21T09:32:55;3.83;;;3.20;;
20441;SDS011;10380;52.102;20.614;2022-09-21T09:38:13;2.03;;;1.80;;
20441;SDS011;10380;52.102;20.614;2022-09-21T09:52:13;3.53;;;2.20;;
20441;SDS011;10380;52.102;20.614;2022-09-21T09:54:42;3.40;;;2.13;;
20441;SDS011;10380;52.102;20.614;2022-09-21T09:57:09;4.23;;;3.00;;
20441;SDS011;10380;52.102;20.614;2022-09-21T09:59:42;4.70;;;2.17;;
20441;SDS011;10380;52.102;20.614;2022-09-21T10:02:24;3.30;;;2.60;;
20441;SDS011;10380;52.102;20.614;2022-09-21T10:05:02;2.57;;;2.37;;
20441;SDS011;10380;52.102;20.614;2022-09-21T10:07:36;2.50;;;2.30;;
20441;SDS011;10380;52.102;20.614;2022-09-21T10:10:50;2.37;;;1.90;;
20441;SDS011;10380;52.102;20.614;2022-09-21T10:12:56;2.00;;;1.83;;
20441;SDS011;10380;52.102;20.614;2022-09-21T10:15:34;2.30;;;1.67;;
20441;SDS011;10380;52.102;20.614;2022-09-21T10:20:53;4.30;;;1.27;;
20441;SDS011;10380;52.102;20.614;2022-09-21T10:23:26;1.58;;;1.48;;
20441;SDS011;10380;52.102;20.614;2022-09-21T10:26:02;1.75;;;1.63;;
20441;SDS011;10380;52.102;20.614;2022-09-21T10:28:35;2.08;;;1.65;;
20441;SDS011;10380;52.102;20.614;2022-09-21T10:31:10;2.38;;;1.95;;
20441;SDS011;10380;52.102;20.614;2022-09-21T10:33:51;2.35;;;1.40;;
20441;SDS011;10380;52.102;20.614;2022-09-21T10:36:28;2.33;;;1.85;;
20441;SDS011;10380;52.102;20.614;2022-09-21T10:44:41;2.23;;;1.90;;
20441;SDS011;10380;52.102;20.614;2022-09-21T10:47:17;5.40;;;2.35;;
20441;SDS011;10380;52.102;20.614;2022-09-21T10:49:46;3.87;;;1.53;;
20441;SDS011;10380;52.102;20.614;2022-09-21T10:52:17;2.00;;;1.55;;
20441;SDS011;10380;52.102;20.614;2022-09-21T10:54:48;4.63;;;2.45;;
20441;SDS011;10380;52.102;20.614;2022-09-21T10:57:19;4.07;;;1.67;;
20441;SDS011;10380;52.102;20.614;2022-09-21T10:59:50;2.70;;;1.43;;
20441;SDS011;10380;52.102;20.614;2022-09-21T11:02:32;2.08;;;1.52;;
20441;SDS011;10380;52.102;20.614;2022-09-21T11:07:51;4.13;;;1.42;;
20441;SDS011;10380;52.102;20.614;2022-09-21T11:15:58;0.80;;;0.80;;
20441;SDS011;10380;52.102;20.614;2022-09-21T11:18:42;2.08;;;1.52;;
20441;SDS011;10380;52.102;20.614;2022-09-21T11:21:18;1.40;;;0.93;;
20441;SDS011;10380;52.102;20.614;2022-09-21T11:23:55;2.00;;;1.60;;
20441;SDS011;10380;52.102;20.614;2022-09-21T11:29:18;2.30;;;1.55;;
20441;SDS011;10380;52.102;20.614;2022-09-21T11:31:56;1.67;;;1.30;;
20441;SDS011;10380;52.102;20.614;2022-09-21T11:34:44;3.15;;;1.60;;
20441;SDS011;10380;52.102;20.614;2022-09-21T11:37:54;2.50;;;1.40;;
20441;SDS011;10380;52.102;20.614;2022-09-21T11:52:33;2.45;;;1.75;;
20441;SDS011;10380;52.102;20.614;2022-09-21T11:57:41;3.20;;;2.05;;
20441;SDS011;10380;52.102;20.614;2022-09-21T12:00:52;2.78;;;1.45;;
20441;SDS011;10380;52.102;20.614;2022-09-21T12:06:39;3.05;;;1.50;;
20441;SDS011;10380;52.102;20.614;2022-09-21T12:22:29;1.23;;;1.00;;
20441;SDS011;10380;52.102;20.614;2022-09-21T12:30:32;1.13;;;1.02;;
20441;SDS011;10380;52.102;20.614;2022-09-21T12:40:51;1.17;;;0.80;;
20441;SDS011;10380;52.102;20.614;2022-09-21T12:43:27;1.05;;;0.80;;
20441;SDS011;10380;52.102;20.614;2022-09-21T12:48:37;2.20;;;1.10;;
20441;SDS011;10380;52.102;20.614;2022-09-21T12:51:10;3.78;;;1.10;;
20441;SDS011;10380;52.102;20.614;2022-09-21T12:53:53;0.70;;;0.70;;
20441;SDS011;10380;52.102;20.614;2022-09-21T13:02:02;1.75;;;0.90;;
20441;SDS011;10380;52.102;20.614;2022-09-21T13:09:41;2.05;;;0.90;;
20441;SDS011;10380;52.102;20.614;2022-09-21T13:12:14;1.30;;;1.10;;
20441;SDS011;10380;52.102;20.614;2022-09-21T13:15:04;1.52;;;0.95;;
20441;SDS011;10380;52.102;20.614;2022-09-21T13:17:40;2.13;;;1.10;;
20441;SDS011;10380;52.102;20.614;2022-09-21T13:20:17;2.22;;;1.33;;
20441;SDS011;10380;52.102;20.614;2022-09-21T13:22:46;3.45;;;1.38;;
20441;SDS011;10380;52.102;20.614;2022-09-21T13:25:21;1.65;;;1.30;;
20441;SDS011;10380;52.102;20.614;2022-09-21T13:30:39;1.92;;;1.50;;
20441;SDS011;10380;52.102;20.614;2022-09-21T13:41:00;4.53;;;1.80;;
20441;SDS011;10380;52.102;20.614;2022-09-21T13:49:12;4.47;;;2.05;;
20441;SDS011;10380;52.102;20.614;2022-09-21T13:51:54;4.90;;;2.67;;
20441;SDS011;10380;52.102;20.614;2022-09-21T13:57:15;3.50;;;1.43;;
20441;SDS011;10380;52.102;20.614;2022-09-21T14:00:07;1.50;;;1.17;;
20441;SDS011;10380;52.102;20.614;2022-09-21T14:02:39;2.47;;;1.53;;
20441;SDS011;10380;52.102;20.614;2022-09-21T14:10:31;1.70;;;1.23;;
20441;SDS011;10380;52.102;20.614;2022-09-21T14:13:02;1.83;;;0.93;;
20441;SDS011;10380;52.102;20.614;2022-09-21T14:15:42;2.30;;;1.23;;
20441;SDS011;10380;52.102;20.614;2022-09-21T14:29:06;4.33;;;1.03;;
20441;SDS011;10380;52.102;20.614;2022-09-21T14:31:40;1.73;;;1.30;;
20441;SDS011;10380;52.102;20.614;2022-09-21T14:34:11;0.80;;;0.80;;
20441;SDS011;10380;52.102;20.614;2022-09-21T14:36:49;3.03;;;1.43;;
20441;SDS011;10380;52.102;20.614;2022-09-21T14:42:06;5.83;;;1.33;;
20441;SDS011;10380;52.102;20.614;2022-09-21T14:44:37;1.00;;;0.90;;
20441;SDS011;10380;52.102;20.614;2022-09-21T14:47:17;1.50;;;1.30;;
20441;SDS011;10380;52.102;20.614;2022-09-21T15:01:56;0.60;;;0.50;;
20441;SDS011;10380;52.102;20.614;2022-09-21T15:07:30;0.70;;;0.70;;
20441;SDS011;10380;52.102;20.614;2022-09-21T15:10:28;0.52;;;0.50;;
20441;SDS011;10380;52.102;20.614;2022-09-21T15:16:29;1.08;;;0.68;;
20441;SDS011;10380;52.102;20.614;2022-09-21T15:21:56;1.30;;;0.75;;
20441;SDS011;10380;52.102;20.614;2022-09-21T15:24:50;1.40;;;0.90;;
20441;SDS011;10380;52.102;20.614;2022-09-21T15:27:19;0.93;;;0.77;;
20441;SDS011;10380;52.102;20.614;2022-09-21T15:29:53;2.75;;;1.10;;
20441;SDS011;10380;52.102;20.614;2022-09-21T15:32:40;1.40;;;1.05;;
20441;SDS011;10380;52.102;20.614;2022-09-21T15:37:47;1.40;;;0.93;;
20441;SDS011;10380;52.102;20.614;2022-09-21T15:42:59;1.53;;;1.20;;
20441;SDS011;10380;52.102;20.614;2022-09-21T15:45:27;1.50;;;1.10;;
20441;SDS011;10380;52.102;20.614;2022-09-21T15:47:59;1.70;;;1.10;;
20441;SDS011;10380;52.102;20.614;2022-09-21T15:50:26;2.67;;;1.90;;
20441;SDS011;10380;52.102;20.614;2022-09-21T15:52:59;2.00;;;1.30;;
20441;SDS011;10380;52.102;20.614;2022-09-21T15:55:30;3.53;;;1.63;;
20441;SDS011;10380;52.102;20.614;2022-09-21T15:57:59;2.57;;;1.80;;
20441;SDS011;10380;52.102;20.614;2022-09-21T16:00:29;2.30;;;1.67;;
20441;SDS011;10380;52.102;20.614;2022-09-21T16:03:04;2.67;;;1.90;;
20441;SDS011;10380;52.102;20.614;2022-09-21T16:05:45;3.97;;;1.83;;
20441;SDS011;10380;52.102;20.614;2022-09-21T16:08:33;4.13;;;2.37;;
20441;SDS011;10380;52.102;20.614;2022-09-21T16:11:12;5.20;;;3.60;;
20441;SDS011;10380;52.102;20.614;2022-09-21T16:13:44;4.73;;;3.53;;
20441;SDS011;10380;52.102;20.614;2022-09-21T16:16:30;5.40;;;3.93;;
20441;SDS011;10380;52.102;20.614;2022-09-21T16:18:57;4.10;;;3.33;;
20441;SDS011;10380;52.102;20.614;2022-09-21T16:21:31;5.47;;;3.83;;
20441;SDS011;10380;52.102;20.614;2022-09-21T16:26:57;3.97;;;2.90;;
20441;SDS011;10380;52.102;20.614;2022-09-21T16:29:27;6.70;;;3.83;;
20441;SDS011;10380;52.102;20.614;2022-09-21T16:34:51;5.10;;;2.90;;
20441;SDS011;10380;52.102;20.614;2022-09-21T16:37:34;5.97;;;3.00;;
20441;SDS011;10380;52.102;20.614;2022-09-21T16:40:02;2.97;;;2.10;;
20441;SDS011;10380;52.102;20.614;2022-09-21T16:42:29;5.57;;;3.10;;
20441;SDS011;10380;52.102;20.614;2022-09-21T16:44:59;3.27;;;2.30;;
20441;SDS011;10380;52.102;20.614;2022-09-21T16:47:39;2.33;;;1.90;;
20441;SDS011;10380;52.102;20.614;2022-09-21T16:50:10;4.20;;;1.87;;
20441;SDS011;10380;52.102;20.614;2022-09-21T16:52:37;2.07;;;1.63;;
20441;SDS011;10380;52.102;20.614;2022-09-21T16:55:04;2.43;;;1.73;;
20441;SDS011;10380;52.102;20.614;2022-09-21T16:57:31;2.00;;;1.50;;
20441;SDS011;10380;52.102;20.614;2022-09-21T16:59:59;2.30;;;1.20;;
20441;SDS011;10380;52.102;20.614;2022-09-21T17:02:26;2.30;;;1.30;;
20441;SDS011;10380;52.102;20.614;2022-09-21T17:04:53;2.57;;;1.90;;
20441;SDS011;10380;52.102;20.614;2022-09-21T17:07:20;4.30;;;1.73;;
20441;SDS011;10380;52.102;20.614;2022-09-21T17:09:47;3.20;;;2.00;;
20441;SDS011;10380;52.102;20.614;2022-09-21T17:12:14;2.07;;;1.73;;
20441;SDS011;10380;52.102;20.614;2022-09-21T17:14:43;3.23;;;1.80;;
20441;SDS011;10380;52.102;20.614;2022-09-21T17:17:22;2.30;;;1.60;;
20441;SDS011;10380;52.102;20.614;2022-09-21T17:19:51;3.03;;;2.03;;
20441;SDS011;10380;52.102;20.614;2022-09-21T17:22:18;3.83;;;2.47;;
20441;SDS011;10380;52.102;20.614;2022-09-21T17:24:46;4.50;;;1.93;;
20441;SDS011;10380;52.102;20.614;2022-09-21T17:27:21;3.30;;;1.80;;
20441;SDS011;10380;52.102;20.614;2022-09-21T17:29:52;3.10;;;2.00;;
20441;SDS011;10380;52.102;20.614;2022-09-21T17:32:21;3.03;;;2.00;;
20441;SDS011;10380;52.102;20.614;2022-09-21T17:34:59;2.80;;;1.70;;
20441;SDS011;10380;52.102;20.614;2022-09-21T17:37:38;2.73;;;2.03;;
20441;SDS011;10380;52.102;20.614;2022-09-21T17:40:05;4.57;;;2.30;;
20441;SDS011;10380;52.102;20.614;2022-09-21T17:42:40;4.43;;;2.33;;
20441;SDS011;10380;52.102;20.614;2022-09-21T17:45:24;3.73;;;2.83;;
20441;SDS011;10380;52.102;20.614;2022-09-21T17:48:19;4.63;;;2.80;;
20441;SDS011;10380;52.102;20.614;2022-09-21T17:50:47;4.00;;;2.10;;
20441;SDS011;10380;52.102;20.614;2022-09-21T17:53:15;2.93;;;1.90;;
20441;SDS011;10380;52.102;20.614;2022-09-21T17:56:14;4.27;;;2.40;;
20441;SDS011;10380;52.102;20.614;2022-09-21T17:59:01;3.67;;;2.33;;
20441;SDS011;10380;52.102;20.614;2022-09-21T18:01:34;3.97;;;2.33;;
20441;SDS011;10380;52.102;20.614;2022-09-21T18:04:05;4.07;;;2.47;;
20441;SDS011;10380;52.102;20.614;2022-09-21T18:06:33;3.00;;;2.43;;
20441;SDS011;10380;52.102;20.614;2022-09-21T18:09:00;4.30;;;2.37;;
20441;SDS011;10380;52.102;20.614;2022-09-21T18:23:10;4.80;;;3.40;;
20441;SDS011;10380;52.102;20.614;2022-09-21T18:25:46;2.77;;;1.90;;
20441;SDS011;10380;52.102;20.614;2022-09-21T18:30:56;6.17;;;2.70;;
20441;SDS011;10380;52.102;20.614;2022-09-21T18:33:44;7.23;;;3.73;;
20441;SDS011;10380;52.102;20.614;2022-09-21T18:36:28;5.50;;;3.00;;
20441;SDS011;10380;52.102;20.614;2022-09-21T18:42:00;4.40;;;3.70;;
20441;SDS011;10380;52.102;20.614;2022-09-21T18:44:50;6.13;;;4.43;;
20441;SDS011;10380;52.102;20.614;2022-09-21T18:55:45;10.13;;;6.90;;
20441;SDS011;10380;52.102;20.614;2022-09-21T18:58:12;8.53;;;6.87;;
20441;SDS011;10380;52.102;20.614;2022-09-21T19:00:41;6.90;;;4.93;;
20441;SDS011;10380;52.102;20.614;2022-09-21T19:03:12;10.50;;;5.10;;
20441;SDS011;10380;52.102;20.614;2022-09-21T19:05:53;5.90;;;4.53;;
20441;SDS011;10380;52.102;20.614;2022-09-21T19:11:15;8.00;;;4.60;;
20441;SDS011;10380;52.102;20.614;2022-09-21T19:13:55;8.33;;;5.43;;
20441;SDS011;10380;52.102;20.614;2022-09-21T19:16:33;8.33;;;5.40;;
20441;SDS011;10380;52.102;20.614;2022-09-21T19:21:57;6.63;;;5.30;;